createdAt,value
2019-02-23T00:02:03.202Z,42.42
2019-02-23T00:07:18.655Z,42.51
2019-02-23T00:09:45.269Z,41.99
2019-02-23T00:12:11.844Z,42.36
2019-02-23T00:14:38.441Z,41.91
2019-02-23T00:17:05.008Z,42.35
2019-02-23T00:19:31.602Z,42.09
2019-02-23T00:21:58.188Z,42.22
2019-02-23T00:24:24.788Z,42.48
2019-02-23T00:26:51.363Z,42.68
2019-02-23T00:29:17.980Z,42.61
2019-02-23T00:31:44.567Z,42.87
2019-02-23T00:34:11.182Z,42.69
2019-02-23T00:36:37.762Z,42.55
2019-02-23T00:39:04.383Z,43.18
2019-02-23T00:41:30.965Z,42.74
2019-02-23T00:43:57.605Z,43.27
2019-02-23T00:46:24.187Z,42.80
2019-02-23T00:48:50.779Z,43.08
2019-02-23T00:51:17.348Z,42.88
2019-02-23T00:53:43.966Z,43.28
2019-02-23T00:56:10.536Z,43.21
2019-02-23T00:58:37.167Z,43.33
2019-02-23T01:01:03.760Z,43.56
2019-02-23T01:03:30.336Z,43.87
2019-02-23T01:05:56.935Z,43.63
2019-02-23T01:08:23.580Z,43.60
2019-02-23T01:10:57.682Z,43.76
2019-02-23T01:13:18.459Z,43.18
2019-02-23T01:15:45.031Z,43.42
2019-02-23T01:18:11.601Z,43.90
2019-02-23T01:20:38.191Z,43.71
2019-02-23T01:23:04.764Z,43.65
2019-02-23T01:25:31.333Z,43.67
2019-02-23T01:27:57.909Z,44.01
2019-02-23T01:30:25.996Z,44.17
2019-02-23T01:32:52.707Z,44.10
2019-02-23T01:35:19.286Z,44.14
2019-02-23T01:37:45.872Z,43.90
2019-02-23T01:40:12.440Z,43.84
2019-02-23T01:42:39.019Z,44.49
2019-02-23T01:45:05.593Z,44.85
2019-02-23T01:47:32.156Z,44.73
2019-02-23T01:49:59.358Z,44.98
2019-02-23T01:52:26.106Z,44.65
2019-02-23T01:54:52.679Z,44.82
2019-02-23T01:57:19.337Z,44.43
2019-02-23T01:59:45.918Z,44.14
2019-02-23T02:02:12.495Z,44.48
2019-02-23T02:04:39.059Z,44.72
2019-02-23T02:07:05.634Z,44.87
2019-02-23T02:09:32.212Z,44.49
2019-02-23T02:11:58.872Z,44.95
2019-02-23T02:14:25.573Z,44.92
2019-02-23T02:16:52.197Z,44.98
2019-02-23T02:19:18.811Z,45.02
2019-02-23T02:21:45.377Z,45.26
2019-02-23T02:24:11.980Z,45.05
2019-02-23T02:26:38.554Z,44.77
2019-02-23T02:29:05.171Z,45.13
2019-02-23T02:31:31.751Z,44.89
2019-02-23T02:33:58.324Z,45.33
2019-02-23T02:36:24.901Z,45.74
2019-02-23T02:38:51.506Z,45.50
2019-02-23T02:41:18.124Z,45.53
2019-02-23T02:43:44.687Z,45.06
2019-02-23T02:46:11.295Z,45.85
2019-02-23T02:48:37.866Z,45.38
2019-02-23T02:51:04.475Z,46.23
2019-02-23T02:53:31.050Z,45.76
2019-02-23T02:55:57.658Z,45.72
2019-02-23T02:58:24.240Z,45.92
2019-02-23T03:00:50.825Z,46.04
2019-02-23T03:03:17.406Z,46.25
2019-02-23T03:05:44.029Z,45.99
2019-02-23T03:08:10.599Z,46.38
2019-02-23T03:10:37.214Z,46.46
2019-02-23T03:13:03.840Z,46.85
2019-02-23T03:15:30.489Z,46.33
2019-02-23T03:17:57.065Z,46.33
2019-02-23T03:20:35.931Z,46.92
2019-02-23T03:22:52.021Z,46.02
2019-02-23T03:25:18.634Z,46.17
2019-02-23T03:27:45.203Z,45.68
2019-02-23T03:30:11.851Z,45.84
2019-02-23T03:32:38.675Z,45.61
2019-02-23T03:35:05.299Z,45.58
2019-02-23T03:37:31.860Z,45.78
2019-02-23T03:39:58.471Z,45.78
2019-02-23T03:42:25.038Z,45.88
2019-02-23T03:44:51.681Z,46.45
2019-02-23T03:47:18.267Z,46.67
2019-02-23T03:49:44.976Z,46.04
2019-02-23T03:52:11.545Z,46.15
2019-02-23T03:54:38.163Z,46.35
2019-02-23T03:57:04.732Z,46.21
2019-02-23T03:59:31.297Z,46.39
2019-02-23T04:01:57.878Z,46.40
2019-02-23T04:04:24.444Z,46.10
2019-02-23T04:06:51.014Z,46.44
2019-02-23T04:09:17.586Z,46.67
2019-02-23T04:11:44.166Z,46.30
2019-02-23T04:14:10.751Z,46.98
2019-02-23T04:16:37.317Z,46.98
2019-02-23T04:19:03.899Z,46.51
2019-02-23T04:21:30.468Z,46.53
2019-02-23T04:23:57.038Z,46.40
2019-02-23T04:26:23.606Z,47.11
2019-02-23T04:28:50.186Z,47.35
2019-02-23T04:31:16.752Z,48.54
2019-02-23T04:33:43.327Z,49.14
2019-02-23T04:36:09.976Z,47.88
2019-02-23T04:38:36.560Z,48.28
2019-02-23T04:41:03.135Z,47.88
2019-02-23T04:43:29.714Z,47.51
2019-02-23T04:45:56.282Z,47.74
2019-02-23T04:48:22.879Z,47.26
2019-02-23T04:50:49.614Z,47.99
2019-02-23T04:53:16.175Z,47.64
2019-02-23T04:55:42.748Z,47.70
2019-02-23T04:58:09.325Z,47.82
2019-02-23T05:00:35.902Z,47.17
2019-02-23T05:03:02.476Z,47.23
2019-02-23T05:05:29.051Z,47.11
2019-02-23T05:07:55.626Z,47.93
2019-02-23T05:10:22.208Z,48.01
2019-02-23T05:12:48.778Z,48.22
2019-02-23T05:15:15.355Z,48.14
2019-02-23T05:17:41.936Z,48.32
2019-02-23T05:20:08.524Z,48.24
2019-02-23T05:22:35.101Z,48.09
2019-02-23T05:25:01.707Z,49.21
2019-02-23T05:27:28.361Z,48.48
2019-02-23T05:29:54.931Z,48.96
2019-02-23T05:32:21.622Z,49.64
2019-02-23T05:34:48.304Z,50.42
2019-02-23T05:37:14.976Z,49.95
2019-02-23T05:39:41.558Z,49.39
2019-02-23T05:42:08.160Z,49.35
2019-02-23T05:44:34.740Z,49.03
2019-02-23T05:47:01.398Z,48.85
2019-02-23T05:49:27.976Z,48.62
2019-02-23T05:51:54.587Z,50.11
2019-02-23T05:54:21.209Z,49.39
2019-02-23T05:56:47.873Z,48.95
2019-02-23T05:59:14.443Z,48.93
2019-02-23T06:01:41.060Z,48.27
2019-02-23T06:04:07.635Z,48.75
2019-02-23T06:06:34.234Z,49.29
2019-02-23T06:09:00.816Z,48.86
2019-02-23T06:11:27.471Z,49.21
2019-02-23T06:13:54.042Z,49.00
2019-02-23T06:16:20.649Z,49.35
2019-02-23T06:18:47.213Z,48.99
2019-02-23T06:21:13.846Z,49.18
2019-02-23T06:23:40.420Z,49.17
2019-02-23T06:26:07.046Z,49.81
2019-02-23T06:28:33.671Z,49.92
2019-02-23T06:31:00.272Z,50.79
2019-02-23T06:33:26.851Z,51.37
2019-02-23T06:35:53.445Z,50.28
2019-02-23T06:38:20.024Z,51.08
2019-02-23T06:40:46.647Z,50.97
2019-02-23T06:43:13.264Z,51.80
2019-02-23T06:45:39.899Z,51.27
2019-02-23T06:48:06.473Z,50.54
2019-02-23T06:50:33.047Z,51.08
2019-02-23T06:52:59.627Z,50.13
2019-02-23T06:55:26.203Z,49.47
2019-02-23T06:57:52.777Z,49.05
2019-02-23T07:00:19.359Z,48.90
2019-02-23T07:02:45.940Z,49.15
2019-02-23T07:05:12.531Z,48.31
2019-02-23T07:07:39.125Z,49.55
2019-02-23T07:10:05.698Z,49.63
2019-02-23T07:12:32.276Z,48.44
2019-02-23T07:14:58.847Z,47.68
2019-02-23T07:17:25.435Z,47.23
2019-02-23T07:19:52.003Z,47.51
2019-02-23T07:22:18.624Z,47.03
2019-02-23T07:24:45.232Z,46.55
2019-02-23T07:27:11.808Z,46.43
2019-02-23T07:29:38.382Z,46.13
2019-02-23T07:32:04.960Z,46.02
2019-02-23T07:34:31.555Z,45.91
2019-02-23T07:36:58.194Z,45.92
2019-02-23T07:39:24.854Z,45.51
2019-02-23T07:41:51.464Z,45.25
2019-02-23T07:44:18.074Z,45.08
2019-02-23T07:46:44.649Z,44.94
2019-02-23T07:49:11.222Z,44.53
2019-02-23T07:51:37.810Z,44.31
2019-02-23T07:54:04.379Z,44.24
2019-02-23T07:56:30.996Z,43.64
2019-02-23T07:58:57.574Z,43.21
2019-02-23T08:01:24.192Z,43.05
2019-02-23T08:03:50.775Z,42.88
2019-02-23T08:06:17.397Z,42.93
2019-02-23T08:08:43.963Z,42.01
2019-02-23T08:11:10.575Z,42.00
2019-02-23T08:13:37.153Z,42.06
2019-02-23T08:16:03.731Z,41.81
2019-02-23T08:18:30.302Z,41.98
2019-02-23T08:20:56.873Z,41.92
2019-02-23T08:23:23.449Z,41.53
2019-02-23T08:25:50.020Z,41.41
2019-02-23T08:28:16.599Z,40.73
2019-02-23T08:30:43.156Z,39.93
2019-02-23T08:33:09.742Z,39.95
2019-02-23T08:35:36.307Z,39.81
2019-02-23T08:38:02.884Z,38.44
2019-02-23T08:40:29.524Z,39.25
2019-02-23T08:42:56.134Z,39.19
2019-02-23T08:45:23.702Z,38.40
2019-02-23T08:47:50.307Z,38.33
2019-02-23T08:50:16.890Z,38.31
2019-02-23T08:52:49.247Z,37.15
2019-02-23T08:55:11.784Z,36.09
2019-02-23T08:57:38.390Z,36.74
2019-02-23T09:00:04.956Z,35.87
2019-02-23T09:02:31.564Z,36.07
2019-02-23T09:04:58.168Z,35.19
2019-02-23T09:07:24.816Z,34.78
2019-02-23T09:09:51.396Z,35.84
2019-02-23T09:12:18.013Z,33.99
2019-02-23T09:14:44.580Z,34.73
2019-02-23T09:17:11.225Z,34.15
2019-02-23T09:19:40.101Z,33.46
2019-02-23T09:22:06.779Z,33.01
2019-02-23T09:24:35.602Z,34.41
2019-02-23T09:27:02.204Z,33.34
2019-02-23T09:29:28.833Z,33.66
2019-02-23T09:31:55.435Z,32.37
2019-02-23T09:34:22.030Z,33.48
2019-02-23T09:36:48.671Z,32.70
2019-02-23T09:39:17.148Z,30.08
2019-02-23T09:41:43.736Z,31.54
2019-02-23T09:44:10.319Z,32.53
2019-02-23T09:46:36.921Z,30.88
2019-02-23T09:49:03.493Z,32.73
2019-02-23T09:51:30.078Z,31.52
2019-02-23T09:53:56.655Z,28.16
2019-02-23T09:56:23.225Z,29.34
2019-02-23T09:58:49.795Z,31.40
2019-02-23T10:01:16.380Z,29.12
2019-02-23T10:03:42.950Z,31.16
2019-02-23T10:06:09.513Z,31.45
2019-02-23T10:08:36.101Z,31.34
2019-02-23T10:11:02.678Z,31.16
2019-02-23T10:13:29.255Z,28.39
2019-02-23T10:15:55.838Z,28.92
2019-02-23T10:18:22.424Z,29.91
2019-02-23T10:20:48.983Z,30.14
2019-02-23T10:23:21.913Z,29.96
2019-02-23T10:25:43.856Z,30.09
2019-02-23T10:28:10.433Z,30.49
2019-02-23T10:30:37.026Z,28.02
2019-02-23T10:33:03.606Z,28.79
2019-02-23T10:35:30.181Z,29.64
2019-02-23T10:37:56.759Z,30.08
2019-02-23T10:40:23.327Z,27.36
2019-02-23T10:42:49.923Z,27.52
2019-02-23T10:45:16.503Z,27.75
2019-02-23T10:47:43.077Z,27.87
2019-02-23T10:50:09.653Z,27.64
2019-02-23T10:52:36.264Z,28.35
2019-02-23T10:55:02.835Z,27.55
2019-02-23T10:57:29.450Z,27.82
2019-02-23T10:59:56.030Z,27.62
2019-02-23T11:02:22.638Z,26.48
2019-02-23T11:04:49.219Z,24.79
2019-02-23T11:07:15.815Z,25.52
2019-02-23T11:09:42.384Z,25.55
2019-02-23T11:12:08.997Z,24.64
2019-02-23T11:14:35.572Z,23.09
2019-02-23T11:17:02.145Z,25.67
2019-02-23T11:19:28.718Z,24.10
2019-02-23T11:21:55.898Z,24.86
2019-02-23T11:24:22.472Z,23.06
2019-02-23T11:26:49.051Z,22.88
2019-02-23T11:29:15.629Z,22.03
2019-02-23T11:31:42.208Z,24.40
2019-02-23T11:34:08.789Z,25.03
2019-02-23T11:36:35.369Z,24.99
2019-02-23T11:39:01.937Z,22.12
2019-02-23T11:41:28.507Z,24.07
2019-02-23T11:43:55.113Z,24.00
2019-02-23T11:46:21.679Z,24.36
2019-02-23T11:48:48.254Z,22.80
2019-02-23T11:51:14.832Z,24.71
2019-02-23T11:53:41.409Z,24.99
2019-02-23T11:56:07.978Z,25.39
2019-02-23T11:58:34.559Z,24.98
2019-02-23T12:01:01.131Z,25.03
2019-02-23T12:03:27.715Z,23.67
2019-02-23T12:05:54.302Z,24.39
2019-02-23T12:08:20.885Z,23.91
2019-02-23T12:10:47.453Z,23.94
2019-02-23T12:13:14.093Z,23.09
2019-02-23T12:15:40.677Z,24.38
2019-02-23T12:18:07.258Z,24.90
2019-02-23T12:20:33.828Z,24.69
2019-02-23T12:23:00.428Z,23.35
2019-02-23T12:25:27.016Z,24.49
2019-02-23T12:27:53.625Z,24.41
2019-02-23T12:30:20.212Z,24.97
2019-02-23T12:32:46.817Z,23.15
2019-02-23T12:35:13.385Z,23.75
2019-02-23T12:37:39.958Z,24.05
2019-02-23T12:40:06.542Z,24.49
2019-02-23T12:42:33.112Z,24.93
2019-02-23T12:44:59.702Z,25.20
2019-02-23T12:47:26.275Z,25.14
2019-02-23T12:49:52.844Z,24.91
2019-02-23T12:52:19.419Z,23.70
2019-02-23T12:54:46.000Z,24.32
2019-02-23T12:57:12.570Z,24.28
2019-02-23T12:59:39.146Z,24.28
2019-02-23T13:02:05.727Z,24.10
2019-02-23T13:04:32.302Z,23.50
2019-02-23T13:06:58.877Z,22.20
2019-02-23T13:09:25.496Z,20.58
2019-02-23T13:11:52.083Z,18.78
2019-02-23T13:14:18.731Z,19.32
2019-02-23T13:16:45.299Z,19.33
2019-02-23T13:19:11.915Z,18.46
2019-02-23T13:21:38.482Z,17.93
2019-02-23T13:24:05.074Z,17.10
2019-02-23T13:26:31.657Z,14.99
2019-02-23T13:28:58.239Z,12.87
2019-02-23T13:31:24.825Z,16.03
2019-02-23T13:33:51.397Z,17.46
2019-02-23T13:36:17.995Z,18.14
2019-02-23T13:38:44.571Z,17.77
2019-02-23T13:41:11.169Z,18.18
2019-02-23T13:43:37.744Z,18.10
2019-02-23T13:46:04.359Z,17.94
2019-02-23T13:48:30.947Z,16.78
2019-02-23T13:50:57.525Z,17.78
2019-02-23T13:53:24.095Z,17.59
2019-02-23T13:55:50.677Z,16.53
2019-02-23T13:58:18.959Z,14.67
2019-02-23T14:00:45.631Z,14.75
2019-02-23T14:03:12.243Z,14.79
2019-02-23T14:05:38.830Z,14.98
2019-02-23T14:08:05.425Z,14.59
2019-02-23T14:10:32.006Z,14.23
2019-02-23T14:12:58.580Z,13.14
2019-02-23T14:15:25.161Z,14.78
2019-02-23T14:17:51.758Z,14.10
2019-02-23T14:20:18.333Z,14.67
2019-02-23T14:22:44.941Z,14.05
2019-02-23T14:25:11.510Z,14.60
2019-02-23T14:27:38.192Z,13.87
2019-02-23T14:30:04.863Z,15.10
2019-02-23T14:32:31.439Z,15.28
2019-02-23T14:34:58.016Z,16.09
2019-02-23T14:37:24.592Z,16.41
2019-02-23T14:39:51.218Z,15.80
2019-02-23T14:42:17.875Z,17.69
2019-02-23T14:44:44.561Z,18.33
2019-02-23T14:47:11.147Z,18.86
2019-02-23T14:49:37.728Z,19.39
2019-02-23T14:52:04.316Z,19.80
2019-02-23T14:54:30.902Z,20.06
2019-02-23T14:56:57.504Z,20.15
2019-02-23T14:59:24.191Z,20.21
2019-02-23T15:01:50.947Z,20.34
2019-02-23T15:04:18.115Z,20.48
2019-02-23T15:06:44.719Z,20.34
2019-02-23T15:09:11.314Z,19.21
2019-02-23T15:11:37.929Z,18.52
2019-02-23T15:14:04.501Z,18.21
2019-02-23T15:16:31.082Z,17.43
2019-02-23T15:18:57.666Z,17.56
2019-02-23T15:21:24.248Z,16.92
2019-02-23T15:23:50.833Z,17.63
2019-02-23T15:26:17.417Z,17.16
2019-02-23T15:28:43.990Z,18.27
2019-02-23T15:31:10.563Z,18.30
2019-02-23T15:33:37.168Z,18.90
2019-02-23T15:36:04.097Z,19.25
2019-02-23T15:38:30.751Z,19.44
2019-02-23T15:40:57.341Z,20.06
2019-02-23T15:43:24.020Z,20.67
2019-02-23T15:45:50.727Z,20.56
2019-02-23T15:48:17.370Z,21.19
2019-02-23T15:50:43.983Z,21.36
2019-02-23T15:53:10.633Z,21.49
2019-02-23T15:55:37.258Z,21.83
2019-02-23T15:58:03.832Z,22.04
2019-02-23T16:00:30.455Z,22.05
2019-02-23T16:02:57.030Z,22.50
2019-02-23T16:05:23.590Z,22.82
2019-02-23T16:07:50.162Z,23.09
2019-02-23T16:10:17.936Z,23.53
2019-02-23T16:12:45.475Z,24.01
2019-02-23T16:15:12.097Z,24.42
2019-02-23T16:17:38.718Z,24.75
2019-02-23T16:20:05.306Z,24.93
2019-02-23T16:22:31.880Z,25.42
2019-02-23T16:24:58.493Z,25.86
2019-02-23T16:27:25.065Z,26.13
2019-02-23T16:29:51.655Z,26.55
2019-02-23T16:32:18.224Z,26.87
2019-02-23T16:34:44.821Z,26.93
2019-02-23T16:37:11.394Z,27.05
2019-02-23T16:39:40.471Z,27.40
2019-02-23T16:42:06.368Z,27.46
2019-02-23T16:44:32.980Z,27.71
2019-02-23T16:46:59.594Z,28.15
2019-02-23T16:49:26.179Z,28.26
2019-02-23T16:51:52.765Z,28.55
2019-02-23T16:54:20.333Z,28.61
2019-02-23T16:56:46.909Z,28.76
2019-02-23T16:59:13.520Z,28.84
2019-02-23T17:01:40.096Z,28.99
2019-02-23T17:04:06.675Z,29.27
2019-02-23T17:06:33.384Z,29.31
2019-02-23T17:09:00.048Z,29.54
2019-02-23T17:11:26.657Z,29.63
2019-02-23T17:13:53.237Z,29.64
2019-02-23T17:16:19.809Z,29.46
2019-02-23T17:18:46.384Z,29.44
2019-02-23T17:21:13.002Z,29.70
2019-02-23T17:23:39.617Z,30.12
2019-02-23T17:26:06.233Z,30.34
2019-02-23T17:28:32.952Z,30.59
2019-02-23T17:30:59.531Z,30.88
2019-02-23T17:33:27.980Z,31.39
2019-02-23T17:35:54.474Z,31.57
2019-02-23T17:38:21.041Z,31.61
2019-02-23T17:43:31.903Z,31.82
2019-02-23T17:45:58.479Z,32.29
2019-02-23T17:48:25.173Z,32.64
2019-02-23T17:50:51.756Z,32.45
2019-02-23T17:53:18.323Z,32.30
2019-02-23T17:55:44.895Z,32.90
2019-02-23T17:58:11.496Z,32.43
2019-02-23T18:00:38.080Z,32.46
2019-02-23T18:03:04.648Z,32.49
2019-02-23T18:05:31.223Z,32.81
2019-02-23T18:07:57.838Z,32.62
2019-02-23T18:10:24.478Z,32.63
2019-02-23T18:12:51.104Z,32.72
2019-02-23T18:15:17.681Z,32.76
2019-02-23T18:17:44.257Z,32.87
2019-02-23T18:20:11.106Z,32.67
2019-02-23T18:22:38.188Z,32.52
2019-02-23T18:25:04.835Z,32.61
2019-02-23T18:27:31.491Z,32.61
2019-02-23T18:29:58.366Z,32.39
2019-02-23T18:32:25.454Z,33.29
2019-02-23T18:34:53.795Z,33.19
2019-02-23T18:37:20.427Z,33.73
2019-02-23T18:39:47.032Z,33.61
2019-02-23T18:42:13.606Z,33.91
2019-02-23T18:44:40.191Z,33.46
2019-02-23T18:47:06.813Z,34.16
2019-02-23T18:49:33.415Z,34.36
2019-02-23T18:52:00.043Z,34.20
2019-02-23T18:54:26.626Z,34.29
2019-02-23T18:56:53.191Z,35.14
2019-02-23T18:59:19.774Z,34.18
2019-02-23T19:01:46.390Z,35.24
2019-02-23T19:04:12.966Z,34.57
2019-02-23T19:06:39.577Z,34.68
2019-02-23T19:09:06.147Z,34.78
2019-02-23T19:11:32.762Z,34.56
2019-02-23T19:13:59.335Z,34.42
2019-02-23T19:16:25.925Z,34.92
2019-02-23T19:18:52.505Z,34.72
2019-02-23T19:21:19.086Z,35.01
2019-02-23T19:23:45.658Z,34.88
2019-02-23T19:26:12.263Z,34.98
2019-02-23T19:28:43.165Z,35.48
2019-02-23T19:31:07.195Z,36.52
2019-02-23T19:33:33.769Z,36.16
2019-02-23T19:36:00.378Z,37.62
2019-02-23T19:38:26.960Z,38.59
2019-02-23T19:40:53.559Z,36.96
2019-02-23T19:43:20.138Z,36.87
2019-02-23T19:45:46.730Z,36.32
2019-02-23T19:48:13.352Z,36.04
2019-02-23T19:50:40.418Z,36.21
2019-02-23T19:53:07.049Z,37.07
2019-02-23T19:55:33.815Z,37.49
2019-02-23T19:58:00.388Z,37.21
2019-02-23T20:00:27.067Z,37.14
2019-02-23T20:02:53.647Z,36.92
2019-02-23T20:05:20.228Z,36.44
2019-02-23T20:07:46.805Z,36.76
2019-02-23T20:10:13.383Z,36.61
2019-02-23T20:12:39.956Z,36.32
2019-02-23T20:15:06.538Z,36.43
2019-02-23T20:17:33.109Z,36.54
2019-02-23T20:19:59.676Z,36.34
2019-02-23T20:22:26.254Z,36.47
2019-02-23T20:24:52.830Z,36.80
2019-02-23T20:27:19.418Z,36.46
2019-02-23T20:29:46.102Z,36.25
2019-02-23T20:32:12.719Z,36.42
2019-02-23T20:34:39.328Z,36.61
2019-02-23T20:37:05.912Z,36.56
2019-02-23T20:39:32.572Z,36.32
2019-02-23T20:41:59.156Z,36.28
2019-02-23T20:44:25.728Z,36.08
2019-02-23T20:46:52.300Z,36.61
2019-02-23T20:49:18.907Z,36.74
2019-02-23T20:51:45.583Z,36.41
2019-02-23T20:54:12.157Z,36.17
2019-02-23T20:56:38.778Z,36.38
2019-02-23T20:59:05.394Z,36.72
2019-02-23T21:01:32.030Z,36.41
2019-02-23T21:03:58.660Z,36.86
2019-02-23T21:06:25.264Z,36.80
2019-02-23T21:08:51.836Z,37.06
2019-02-23T21:11:18.523Z,37.03
2019-02-23T21:13:45.131Z,37.15
2019-02-23T21:16:11.743Z,37.11
2019-02-23T21:18:38.330Z,36.96
2019-02-23T21:21:04.942Z,36.94
2019-02-23T21:23:31.515Z,37.75
2019-02-23T21:25:58.097Z,37.25
2019-02-23T21:28:24.670Z,37.46
2019-02-23T21:30:51.244Z,37.55
2019-02-23T21:33:17.817Z,38.08
2019-02-23T21:35:44.498Z,37.90
2019-02-23T21:38:11.081Z,37.94
2019-02-23T21:40:37.649Z,37.59
2019-02-23T21:43:04.228Z,37.61
2019-02-23T21:45:30.839Z,37.63
2019-02-23T21:47:57.461Z,38.05
2019-02-23T21:50:24.040Z,39.14
2019-02-23T21:52:50.611Z,38.38
2019-02-23T21:55:17.195Z,38.52
2019-02-23T21:57:43.787Z,38.71
2019-02-23T22:00:10.361Z,38.39
2019-02-23T22:02:37.004Z,38.50
2019-02-23T22:05:11.712Z,38.70
2019-02-23T22:07:31.915Z,38.43
2019-02-23T22:09:58.867Z,38.31
2019-02-23T22:12:25.533Z,38.81
2019-02-23T22:14:52.178Z,39.24
2019-02-23T22:17:19.303Z,39.03
2019-02-23T22:19:45.880Z,38.60
2019-02-23T22:22:12.473Z,39.30
2019-02-23T22:24:41.587Z,39.07
2019-02-23T22:27:08.937Z,38.75
2019-02-23T22:29:35.642Z,39.17
2019-02-23T22:32:02.227Z,39.24
2019-02-23T22:34:28.803Z,39.10
2019-02-23T22:36:55.406Z,39.49
2019-02-23T22:39:21.980Z,39.10
2019-02-23T22:41:49.845Z,39.93
2019-02-23T22:44:16.661Z,40.01
2019-02-23T22:46:43.244Z,40.22
2019-02-23T22:49:09.828Z,39.68
2019-02-23T22:51:36.416Z,40.13
2019-02-23T22:54:02.987Z,39.74
2019-02-23T22:56:29.567Z,41.22
2019-02-23T22:58:56.145Z,40.68
2019-02-23T23:01:22.827Z,41.07
2019-02-23T23:03:49.419Z,40.33
2019-02-23T23:06:15.985Z,40.48
2019-02-23T23:08:42.575Z,40.65
2019-02-23T23:11:09.152Z,40.90
2019-02-23T23:13:35.743Z,40.54
2019-02-23T23:16:02.317Z,40.84
2019-02-23T23:18:28.890Z,40.50
2019-02-23T23:20:55.477Z,40.57
2019-02-23T23:23:22.057Z,40.20
2019-02-23T23:25:48.624Z,39.99
2019-02-23T23:28:15.200Z,40.38
2019-02-23T23:30:41.780Z,40.10
2019-02-23T23:33:08.385Z,39.86
2019-02-23T23:35:34.966Z,39.89
2019-02-23T23:38:01.567Z,40.06
2019-02-23T23:40:28.136Z,39.95
2019-02-23T23:42:58.153Z,39.82
2019-02-23T23:45:23.057Z,40.07
2019-02-23T23:47:49.651Z,41.44
2019-02-23T23:50:16.228Z,40.15
2019-02-23T23:52:42.839Z,39.75
2019-02-23T23:55:09.402Z,39.49
2019-02-23T23:57:36.024Z,40.22
